Brooks, Minnesota
Current Conditions -  °F | °C
As of 6:16 PM on Sunday 23 Nov 2014 (Local Time) from KFSE Reporting Station
Haze Haze  
Wind Chill: 12°   Ceiling: 300
Heat Index: 25°   Visibility: 4mi
Dew Point: 23°   Wind: 15mph
Humidity: 93%   Direction: 300°WNW
Pressure: 29.47"   Gusts: 20mph
Location:  47.81°N, 96°W
Report Text: KFSE 240016Z AUTO 30013G17KT 4SM BR OVC003 M04/M05 A2947 RMK AO2
Loading
Personal Weather Stations






























Interactive Weather Map New forecast layout! Learn more

10-Day Weather Forecast

Advertisements
Track Severe Weather on mobile